Time;durP1;ratioP1;P1;durP2;ratioP2;P2;SDS_P1;SDS_P2;PMS_P1;PMS_P2;Temp;Humidity;BMP_temperature;BMP_pressure;BME280_temperature;BME280_humidity;BME280_pressure;Samples;Min_cycle;Max_cycle;Signal;HPM_P1;HPM_P2
2021/06/28 00:01:13;;;;;;;14.88;13.38;;;20.90;99.90;;;;;;5010886;28;20058;-78
2021/06/28 00:03:41;;;;;;;16.63;13.80;;;20.90;99.90;;;;;;5009832;28;20525;-78
2021/06/28 00:06:10;;;;;;;15.13;13.43;;;20.90;99.90;;;;;;5002391;28;20052;-78
2021/06/28 00:08:43;;;;;;;19.98;13.23;;;20.80;99.90;;;;;;5003719;28;20499;-78
2021/06/28 00:11:15;;;;;;;17.42;13.93;;;20.80;99.90;;;;;;5005109;28;20042;-79
2021/06/28 00:13:44;;;;;;;17.13;14.13;;;20.70;99.90;;;;;;5000411;28;20689;-78
2021/06/28 00:16:13;;;;;;;15.50;13.98;;;20.60;99.90;;;;;;5005057;28;20054;-78
2021/06/28 00:18:41;;;;;;;18.85;13.55;;;20.70;99.90;;;;;;5007785;28;20046;-78
2021/06/28 00:21:09;;;;;;;15.98;14.23;;;20.70;99.90;;;;;;5013964;28;20077;-78
2021/06/28 00:23:36;;;;;;;16.55;14.20;;;20.70;99.90;;;;;;5000430;28;20046;-78
2021/06/28 00:26:05;;;;;;;18.98;13.88;;;20.60;99.90;;;;;;5009653;28;20467;-78
2021/06/28 00:28:34;;;;;;;19.60;14.65;;;20.70;99.90;;;;;;5004363;28;20060;-77
2021/06/28 00:31:01;;;;;;;18.25;14.35;;;20.60;99.90;;;;;;5012275;28;20140;-77
2021/06/28 00:33:29;;;;;;;15.88;14.07;;;20.60;99.90;;;;;;5011935;28;20127;-78
2021/06/28 00:35:57;;;;;;;17.80;15.05;;;20.60;99.90;;;;;;5010490;28;20061;-77
2021/06/28 00:38:26;;;;;;;16.65;14.93;;;20.50;99.90;;;;;;5011171;28;20109;-78
2021/06/28 00:40:53;;;;;;;18.48;14.15;;;20.50;99.90;;;;;;5013844;28;20069;-79
2021/06/28 00:43:25;;;;;;;15.98;14.38;;;20.40;99.90;;;;;;5013184;28;20073;-79
2021/06/28 00:45:53;;;;;;;;;;;20.30;99.90;;;;;;5014975;28;20045;-79
2021/06/28 00:48:21;;;;;;;19.73;14.77;;;20.20;99.90;;;;;;5013714;28;20012;-77
2021/06/28 00:50:50;;;;;;;16.60;14.80;;;20.20;99.90;;;;;;5012844;28;20054;-78
2021/06/28 00:53:19;;;;;;;17.60;14.73;;;20.30;99.90;;;;;;5012510;28;20046;-78
2021/06/28 00:55:47;;;;;;;24.77;15.23;;;20.30;99.90;;;;;;5012851;28;20148;-79
2021/06/28 00:58:14;;;;;;;17.45;15.05;;;20.30;99.90;;;;;;5017799;28;20096;-80
2021/06/28 01:00:42;;;;;;;19.08;15.20;;;20.30;99.90;;;;;;5015434;28;20084;-79
2021/06/28 01:03:12;;;;;;;17.20;15.15;;;20.30;99.90;;;;;;5013984;28;20128;-79
2021/06/28 01:09:04;;;;;;;19.13;15.75;;;20.30;99.90;;;;;;4996394;28;20149;-79
2021/06/28 01:11:39;;;;;;;18.67;13.77;;;20.30;99.90;;;;;;5014582;28;20057;-79
2021/06/28 01:14:06;;;;;;;19.80;15.05;;;20.20;99.90;;;;;;5015413;28;20054;-79
2021/06/28 01:16:41;;;;;;;20.25;15.20;;;20.10;99.90;;;;;;5016619;28;20502;-79
2021/06/28 01:19:11;;;;;;;20.55;15.55;;;20.10;99.90;;;;;;5016488;28;20410;-79
2021/06/28 01:21:48;;;;;;;18.45;15.55;;;20.10;99.90;;;;;;5016717;28;20100;-80
2021/06/28 01:24:16;;;;;;;20.20;16.35;;;20.00;99.90;;;;;;5018010;28;20049;-79
2021/06/28 01:26:43;;;;;;;23.42;16.98;;;20.00;99.90;;;;;;5019045;28;20094;-79
2021/06/28 01:29:10;;;;;;;24.25;16.77;;;20.00;99.90;;;;;;5020311;28;20046;-79
2021/06/28 01:31:47;;;;;;;22.10;16.45;;;19.90;99.90;;;;;;5018390;28;20101;-79
2021/06/28 01:34:15;;;;;;;22.83;16.33;;;19.90;99.90;;;;;;5017558;28;20061;-79
2021/06/28 01:36:44;;;;;;;20.70;18.30;;;19.90;99.90;;;;;;5018284;28;20088;-79
2021/06/28 01:39:11;;;;;;;23.00;18.70;;;19.80;99.90;;;;;;5017611;28;20046;-79
2021/06/28 01:41:39;;;;;;;24.65;18.40;;;19.80;99.90;;;;;;5018214;28;20562;-79
2021/06/28 01:44:06;;;;;;;22.38;18.90;;;19.70;99.90;;;;;;5017332;28;20569;-79
2021/06/28 01:46:33;;;;;;;23.23;18.63;;;19.80;99.90;;;;;;5017942;28;20144;-79
2021/06/28 01:49:00;;;;;;;23.58;18.40;;;19.80;99.90;;;;;;5018663;28;20057;-78
2021/06/28 01:51:27;;;;;;;21.45;19.25;;;19.90;99.90;;;;;;5017663;28;20077;-79
2021/06/28 01:53:54;;;;;;;25.98;19.67;;;19.90;99.90;;;;;;5017371;28;20049;-78
2021/06/28 01:56:20;;;;;;;26.70;20.13;;;19.90;99.90;;;;;;5018154;28;20389;-79
2021/06/28 01:58:49;;;;;;;29.30;19.20;;;19.90;99.90;;;;;;5017468;28;20103;-80
2021/06/28 02:01:17;;;;;;;24.42;19.40;;;19.90;99.90;;;;;;5017259;28;20104;-79
2021/06/28 02:03:44;;;;;;;24.80;20.98;;;19.90;99.90;;;;;;5017201;28;20053;-77
2021/06/28 02:06:11;;;;;;;24.42;20.80;;;19.90;99.90;;;;;;5012960;28;20104;-77
2021/06/28 02:08:38;;;;;;;26.55;19.58;;;19.90;99.90;;;;;;5013401;28;20185;-78
2021/06/28 02:11:08;;;;;;;23.42;19.90;;;19.90;99.90;;;;;;5012955;28;20129;-77
2021/06/28 02:13:37;;;;;;;24.17;19.70;;;19.90;99.90;;;;;;5013098;28;20145;-76
2021/06/28 02:16:06;;;;;;;26.52;19.70;;;19.90;99.90;;;;;;5012982;28;20214;-77
2021/06/28 02:18:34;;;;;;;24.70;18.50;;;19.90;99.90;;;;;;5012786;28;20439;-77
2021/06/28 02:21:01;;;;;;;24.33;19.05;;;19.90;99.90;;;;;;5012546;28;20137;-77
2021/06/28 02:23:31;;;;;;;21.85;18.17;;;19.90;99.90;;;;;;5012145;28;20077;-77
2021/06/28 02:26:01;;;;;;;28.23;20.42;;;19.80;99.90;;;;;;5012368;28;20057;-76
2021/06/28 02:28:30;;;;;;;29.10;20.35;;;19.60;99.90;;;;;;5012740;28;20049;-77
2021/06/28 02:30:58;;;;;;;28.20;19.73;;;19.50;99.90;;;;;;5012850;28;20081;-78
2021/06/28 02:33:26;;;;;;;23.92;18.33;;;19.30;99.90;;;;;;5011724;28;20136;-78
2021/06/28 02:35:54;;;;;;;22.17;19.13;;;19.30;99.90;;;;;;5013571;28;20128;-79
2021/06/28 02:38:21;;;;;;;21.25;18.05;;;19.30;99.90;;;;;;5013873;28;20053;-79
2021/06/28 02:40:48;;;;;;;21.30;19.05;;;19.40;99.90;;;;;;5013156;28;20467;-77
2021/06/28 02:43:15;;;;;;;23.27;19.40;;;19.40;99.90;;;;;;5012996;28;20137;-78
2021/06/28 02:45:42;;;;;;;27.85;19.65;;;19.40;99.90;;;;;;5013214;28;20132;-78
2021/06/28 02:48:09;;;;;;;27.30;17.55;;;19.50;99.90;;;;;;5012873;28;20522;-77
2021/06/28 02:50:37;;;;;;;27.20;16.92;;;19.40;99.90;;;;;;5013604;28;20110;-77
2021/06/28 02:53:05;;;;;;;22.10;17.73;;;19.30;99.90;;;;;;5013633;28;20149;-78
2021/06/28 02:55:32;;;;;;;36.97;20.27;;;19.30;99.90;;;;;;5063340;23;20036;-78
2021/06/28 02:57:59;;;;;;;33.05;20.42;;;19.20;99.90;;;;;;5056484;28;20076;-79
2021/06/28 03:00:27;;;;;;;26.85;20.85;;;19.20;99.90;;;;;;5056471;28;20049;-78
2021/06/28 03:02:58;;;;;;;27.73;20.50;;;19.10;99.90;;;;;;5056423;28;20052;-78
2021/06/28 03:05:25;;;;;;;27.15;20.65;;;19.10;99.90;;;;;;5051825;28;20107;-78
2021/06/28 03:07:54;;;;;;;29.35;21.85;;;19.10;99.90;;;;;;5038962;28;20091;-79
2021/06/28 03:10:20;;;;;;;29.20;23.13;;;19.10;99.90;;;;;;5036299;28;20131;-77
2021/06/28 03:12:47;;;;;;;29.20;23.33;;;19.10;99.90;;;;;;5033922;28;20158;-78
2021/06/28 03:15:17;;;;;;;32.70;24.42;;;19.10;99.90;;;;;;5033435;28;20053;-78
2021/06/28 03:17:44;;;;;;;33.03;24.73;;;19.00;99.90;;;;;;5034449;28;20115;-78
2021/06/28 03:20:15;;;;;;;36.83;26.13;;;19.10;99.90;;;;;;5032953;28;20095;-78
2021/06/28 03:22:44;;;;;;;33.40;23.02;;;19.00;99.90;;;;;;5033023;28;20132;-78
2021/06/28 03:25:14;;;;;;;31.65;22.67;;;19.00;99.90;;;;;;5034610;28;20498;-77
2021/06/28 03:27:42;;;;;;;32.70;22.45;;;19.10;99.90;;;;;;5037316;28;20141;-77
2021/06/28 03:30:12;;;;;;;29.35;22.42;;;19.10;99.90;;;;;;5035064;28;20129;-77
2021/06/28 03:32:39;;;;;;;37.00;23.30;;;19.10;99.90;;;;;;5033802;28;20133;-77
2021/06/28 03:35:08;;;;;;;31.90;22.95;;;19.10;99.90;;;;;;5032664;28;20132;-77
2021/06/28 03:37:35;;;;;;;30.17;23.15;;;19.10;99.90;;;;;;5033124;28;20177;-77
2021/06/28 03:40:03;;;;;;;34.70;23.48;;;19.10;99.90;;;;;;5034821;28;20077;-78
2021/06/28 03:42:31;;;;;;;31.00;23.38;;;19.00;99.90;;;;;;5037536;28;20096;-78
2021/06/28 03:44:58;;;;;;;35.22;22.80;;;19.10;99.90;;;;;;5036292;28;20086;-77
2021/06/28 03:47:25;;;;;;;30.80;22.80;;;19.10;99.90;;;;;;5033809;28;20053;-77
2021/06/28 03:49:52;;;;;;;28.25;22.75;;;19.20;99.90;;;;;;5035173;28;20466;-78
2021/06/28 03:52:19;;;;;;;27.17;23.23;;;19.10;99.90;;;;;;5036780;28;20060;-78
2021/06/28 03:54:45;;;;;;;34.38;23.33;;;19.10;99.90;;;;;;5035774;28;20239;-78
2021/06/28 03:57:12;;;;;;;34.30;23.52;;;19.20;99.90;;;;;;5035211;28;20124;-78
2021/06/28 03:59:40;;;;;;;32.75;23.30;;;19.30;99.90;;;;;;5035123;28;20140;-78
2021/06/28 04:02:07;;;;;;;31.55;23.67;;;19.30;99.90;;;;;;5038805;28;20053;-79
2021/06/28 04:04:34;;;;;;;28.27;22.92;;;19.40;99.90;;;;;;5038522;28;20137;-78
2021/06/28 04:07:01;;;;;;;31.80;21.02;;;19.50;99.90;;;;;;5034457;28;20501;-80
2021/06/28 04:09:28;;;;;;;27.75;20.00;;;19.50;99.90;;;;;;5035107;28;20056;-78
2021/06/28 04:11:55;;;;;;;23.25;18.27;;;19.80;99.90;;;;;;5033938;28;20049;-78
2021/06/28 04:14:22;;;;;;;29.58;18.98;;;20.00;99.90;;;;;;5034505;28;20505;-78
2021/06/28 04:16:50;;;;;;;24.67;17.50;;;20.10;99.90;;;;;;5035359;28;20137;-78
2021/06/28 04:19:17;;;;;;;25.10;17.17;;;20.30;99.90;;;;;;5033160;28;20132;-78
2021/06/28 04:21:44;;;;;;;19.10;15.95;;;20.40;99.90;;;;;;5033178;28;20136;-78
2021/06/28 04:24:11;;;;;;;23.00;17.05;;;20.60;99.90;;;;;;5035517;28;20113;-77
2021/06/28 04:26:38;;;;;;;24.85;18.40;;;20.70;99.90;;;;;;5038468;28;20095;-78
2021/06/28 04:29:05;;;;;;;21.17;17.88;;;20.80;99.90;;;;;;5037574;28;20105;-76
2021/06/28 04:31:32;;;;;;;25.55;17.50;;;21.00;99.90;;;;;;5033455;28;20080;-78
2021/06/28 04:34:00;;;;;;;24.20;16.83;;;21.40;99.90;;;;;;5032291;28;20057;-78
2021/06/28 04:36:27;;;;;;;22.75;18.50;;;22.00;99.90;;;;;;5031839;28;20080;-77
2021/06/28 04:38:54;;;;;;;27.30;17.88;;;22.50;99.90;;;;;;5031899;28;20045;-77
2021/06/28 04:41:21;;;;;;;24.42;17.85;;;22.80;99.90;;;;;;5031950;28;20054;-77
2021/06/28 04:43:48;;;;;;;24.40;17.05;;;23.00;99.90;;;;;;5031936;28;20081;-78
2021/06/28 04:46:15;;;;;;;22.30;18.60;;;23.10;99.90;;;;;;5031639;28;20133;-78
2021/06/28 04:48:41;;;;;;;23.27;18.08;;;22.90;99.90;;;;;;5031723;28;20128;-78
2021/06/28 04:51:10;;;;;;;24.27;18.92;;;22.50;99.90;;;;;;5032275;28;20450;-77
2021/06/28 04:53:37;;;;;;;27.85;20.00;;;22.40;99.90;;;;;;5032127;28;20052;-78
2021/06/28 04:56:04;;;;;;;27.40;20.23;;;22.20;99.90;;;;;;5032083;28;20057;-78
2021/06/28 04:58:31;;;;;;;28.15;20.95;;;22.10;99.90;;;;;;5036041;28;20057;-78
2021/06/28 05:00:59;;;;;;;26.38;22.02;;;22.10;99.90;;;;;;5039257;28;20049;-78
2021/06/28 05:03:25;;;;;;;25.70;21.15;;;22.10;99.90;;;;;;5039187;28;20045;-78
2021/06/28 05:05:52;;;;;;;27.38;22.83;;;22.10;99.90;;;;;;5039337;28;20081;-78
2021/06/28 05:08:20;;;;;;;26.25;23.45;;;21.90;99.90;;;;;;5040399;28;20130;-81
2021/06/28 05:10:47;;;;;;;24.85;21.65;;;21.90;99.90;;;;;;5040168;28;20457;-80
2021/06/28 05:13:14;;;;;;;27.90;22.15;;;22.00;99.90;;;;;;5039987;28;20111;-80
2021/06/28 05:15:41;;;;;;;30.98;23.13;;;22.20;99.90;;;;;;5039834;28;20073;-80
2021/06/28 05:18:08;;;;;;;28.77;22.70;;;22.30;99.90;;;;;;5040210;28;20459;-79
2021/06/28 05:20:35;;;;;;;29.60;22.33;;;22.30;99.90;;;;;;5040314;28;20128;-78
2021/06/28 05:23:02;;;;;;;26.17;23.38;;;22.30;99.90;;;;;;5041612;28;20049;-79
2021/06/28 05:25:30;;;;;;;26.60;23.13;;;22.20;99.90;;;;;;5042838;28;20336;-81
2021/06/28 05:27:58;;;;;;;26.77;23.08;;;22.10;99.90;;;;;;5043033;28;20100;-81
2021/06/28 05:30:25;;;;;;;31.08;24.38;;;22.10;99.90;;;;;;5048083;28;20053;-81
2021/06/28 05:32:52;;;;;;;31.85;24.30;;;22.10;99.90;;;;;;5057359;28;20049;-78
2021/06/28 05:35:19;;;;;;;31.02;25.58;;;22.20;99.90;;;;;;5057180;28;20049;-78
2021/06/28 05:37:46;;;;;;;32.05;24.85;;;22.30;99.90;;;;;;5055737;28;20077;-80
2021/06/28 05:40:14;;;;;;;27.85;23.55;;;22.40;99.90;;;;;;5056082;28;20041;-79
2021/06/28 05:42:44;;;;;;;32.67;23.77;;;22.50;99.90;;;;;;5056016;28;20053;-79
2021/06/28 05:45:12;;;;;;;28.50;24.08;;;22.60;99.90;;;;;;5056773;28;20056;-79
2021/06/28 05:47:48;;;;;;;31.35;24.55;;;22.70;99.90;;;;;;5053919;28;20049;-78
2021/06/28 05:50:17;;;;;;;29.40;22.48;;;22.70;99.90;;;;;;5051071;28;20064;-79
2021/06/28 05:52:45;;;;;;;27.75;23.25;;;23.10;99.90;;;;;;5040241;28;20428;-81
2021/06/28 05:55:13;;;;;;;29.05;22.55;;;23.30;99.90;;;;;;5041286;28;20076;-81
2021/06/28 05:57:40;;;;;;;32.13;23.63;;;23.40;99.90;;;;;;5040022;28;20489;-81
2021/06/28 06:00:11;;;;;;;29.83;24.35;;;23.40;99.90;;;;;;5037726;28;20085;-80
2021/06/28 06:02:38;;;;;;;28.13;25.10;;;23.50;99.90;;;;;;5039077;28;20081;-80
2021/06/28 06:05:08;;;;;;;33.50;26.48;;;23.50;99.90;;;;;;5036708;28;20077;-81
2021/06/28 06:07:35;;;;;;;29.90;26.70;;;23.50;99.90;;;;;;5038178;28;20096;-80
2021/06/28 06:10:03;;;;;;;35.95;27.15;;;23.50;99.90;;;;;;5037906;28;20472;-79
2021/06/28 06:12:30;;;;;;;33.22;28.00;;;23.50;99.90;;;;;;5037781;28;20555;-80
2021/06/28 06:14:57;;;;;;;30.25;27.15;;;23.40;99.90;;;;;;5037684;28;20053;-80
2021/06/28 06:17:25;;;;;;;30.88;26.50;;;23.30;99.90;;;;;;5038548;28;20054;-80
2021/06/28 06:19:52;;;;;;;33.97;29.90;;;23.20;99.90;;;;;;5039073;28;20462;-80
2021/06/28 06:22:19;;;;;;;34.08;29.63;;;22.80;99.90;;;;;;5037957;28;20594;-80
2021/06/28 06:24:46;;;;;;;34.05;30.38;;;22.60;99.90;;;;;;5039854;28;20061;-78
2021/06/28 06:27:13;;;;;;;32.75;29.20;;;22.50;99.90;;;;;;5044760;28;20068;-78
2021/06/28 06:29:40;;;;;;;32.13;28.17;;;22.70;99.90;;;;;;5042072;28;20060;-80
2021/06/28 06:32:07;;;;;;;31.88;28.67;;;22.80;99.90;;;;;;5037552;28;20128;-81
2021/06/28 06:34:35;;;;;;;32.83;29.42;;;22.90;99.90;;;;;;5036399;28;20092;-80
2021/06/28 06:37:02;;;;;;;32.97;29.05;;;22.80;99.90;;;;;;5036840;28;20136;-82
2021/06/28 06:39:30;;;;;;;31.23;27.40;;;22.70;99.90;;;;;;5037018;28;20526;-79
2021/06/28 06:41:57;;;;;;;31.42;28.15;;;22.90;99.90;;;;;;5036644;28;20053;-79
2021/06/28 06:44:25;;;;;;;30.60;27.33;;;23.20;99.90;;;;;;5036010;28;20084;-80
2021/06/28 06:46:52;;;;;;;28.98;25.67;;;23.80;99.90;;;;;;5036878;28;20077;-80
2021/06/28 06:49:19;;;;;;;27.02;24.42;;;24.60;99.90;;;;;;5037751;28;20096;-80
2021/06/28 06:51:48;;;;;;;28.00;24.45;;;25.70;99.90;;;;;;5036371;28;20103;-80
2021/06/28 06:54:16;;;;;;;29.85;26.48;;;26.20;99.90;;;;;;5036316;28;20105;-79
2021/06/28 06:56:43;;;;;;;28.95;25.73;;;26.10;99.90;;;;;;5036578;28;20055;-80
2021/06/28 06:59:10;;;;;;;31.55;28.23;;;25.80;99.90;;;;;;5036482;28;20050;-79
2021/06/28 07:01:39;;;;;;;32.45;29.08;;;25.20;99.90;;;;;;5037232;28;20509;-79
2021/06/28 07:04:06;;;;;;;33.05;29.60;;;24.70;99.90;;;;;;5037971;28;20105;-81
2021/06/28 07:06:33;;;;;;;32.50;29.02;;;24.30;99.90;;;;;;5037950;28;20053;-80
2021/06/28 07:09:01;;;;;;;32.63;29.02;;;24.10;99.90;;;;;;5038433;28;20118;-81
2021/06/28 07:11:28;;;;;;;31.30;28.05;;;24.10;99.90;;;;;;5037680;28;20084;-81
2021/06/28 07:13:55;;;;;;;32.40;29.15;;;24.00;99.90;;;;;;5038406;28;20049;-81
2021/06/28 07:16:30;;;;;;;33.17;28.42;;;23.90;99.90;;;;;;5038094;28;20488;-80
2021/06/28 07:18:57;;;;;;;32.50;28.10;;;24.00;99.90;;;;;;5038262;28;20497;-82
2021/06/28 07:21:24;;;;;;;32.00;27.52;;;24.10;99.90;;;;;;5037552;28;20113;-82
2021/06/28 07:23:52;;;;;;;29.77;26.65;;;24.20;99.90;;;;;;5037948;28;20096;-82
2021/06/28 07:26:21;;;;;;;28.83;25.67;;;24.20;99.90;;;;;;5037940;28;20060;-81
2021/06/28 07:28:50;;;;;;;27.13;24.42;;;24.20;99.90;;;;;;5036777;28;20064;-81
2021/06/28 07:31:17;;;;;;;22.50;20.20;;;24.40;99.90;;;;;;5037945;28;20045;-80
2021/06/28 07:33:44;;;;;;;25.00;20.00;;;25.30;99.90;;;;;;5037671;28;20053;-81
2021/06/28 07:36:11;;;;;;;20.67;18.55;;;26.20;99.90;;;;;;5037092;28;20049;-80
2021/06/28 07:38:39;;;;;;;20.95;18.15;;;26.90;99.90;;;;;;5037387;28;20107;-79
2021/06/28 07:41:08;;;;;;;19.55;17.63;;;27.10;99.90;;;;;;5037326;28;20042;-79
2021/06/28 07:43:37;;;;;;;19.55;17.33;;;27.40;99.90;;;;;;5038477;28;20087;-81
2021/06/28 07:46:05;;;;;;;22.33;16.25;;;27.40;99.90;;;;;;5039682;28;20109;-80
2021/06/28 07:48:32;;;;;;;17.48;15.88;;;27.80;99.90;;;;;;5042313;28;20075;-80
2021/06/28 07:50:58;;;;;;;18.30;16.58;;;28.10;99.90;;;;;;5046012;28;20065;-81
2021/06/28 07:53:25;;;;;;;17.02;15.32;;;28.60;99.90;;;;;;5041952;28;20120;-81
2021/06/28 07:55:52;;;;;;;17.77;16.08;;;29.00;99.90;;;;;;5037596;28;20081;-82
2021/06/28 07:58:19;;;;;;;16.33;14.80;;;29.00;99.90;;;;;;5038213;28;20471;-80
2021/06/28 08:00:47;;;;;;;17.20;15.40;;;29.40;99.90;;;;;;5037402;28;20088;-81
2021/06/28 08:03:14;;;;;;;17.67;15.90;;;29.70;99.90;;;;;;5036145;28;20300;-83
2021/06/28 08:05:41;;;;;;;18.70;15.63;;;29.50;99.90;;;;;;5020289;28;20136;-80
2021/06/28 08:08:08;;;;;;;16.88;15.23;;;29.50;99.90;;;;;;5008980;28;20536;-80
2021/06/28 08:10:35;;;;;;;17.48;15.70;;;29.10;99.90;;;;;;5006860;28;20463;-81
2021/06/28 08:13:03;;;;;;;17.13;15.32;;;28.50;99.90;;;;;;5005012;28;20129;-81
2021/06/28 08:15:30;;;;;;;16.95;15.25;;;28.20;99.90;;;;;;5009071;28;20085;-81
2021/06/28 08:17:58;;;;;;;19.13;16.13;;;28.00;99.90;;;;;;5009663;28;20055;-81
2021/06/28 08:20:25;;;;;;;18.08;16.27;;;27.50;99.90;;;;;;5009048;28;20074;-81
2021/06/28 08:22:52;;;;;;;16.42;14.70;;;27.30;99.90;;;;;;5008363;28;20099;-79
2021/06/28 08:25:23;;;;;;;15.68;14.10;;;27.20;99.90;;;;;;5006263;28;20042;-79
2021/06/28 08:27:51;;;;;;;16.17;12.73;;;27.10;99.90;;;;;;5017114;28;20074;-79
2021/06/28 08:30:19;;;;;;;15.20;13.80;;;27.30;99.90;;;;;;5017329;28;20342;-78
2021/06/28 08:32:46;;;;;;;15.15;13.55;;;27.70;99.90;;;;;;5019831;28;20092;-79
2021/06/28 08:35:14;;;;;;;13.90;12.50;;;28.10;99.90;;;;;;5021088;28;20083;-79
2021/06/28 08:37:41;;;;;;;12.90;11.52;;;28.70;99.90;;;;;;5020967;28;20081;-80
2021/06/28 08:40:10;;;;;;;15.77;11.70;;;29.60;99.90;;;;;;5021203;28;20084;-82
2021/06/28 08:42:38;;;;;;;14.77;11.80;;;30.00;99.90;;;;;;5020252;28;20085;-80
2021/06/28 08:45:06;;;;;;;18.95;11.98;;;30.30;99.90;;;;;;5020260;28;20553;-80
2021/06/28 08:47:33;;;;;;;14.23;11.32;;;30.80;99.90;;;;;;5020968;28;20490;-80
2021/06/28 08:50:01;;;;;;;13.98;11.88;;;30.90;99.90;;;;;;5021007;28;20050;-81
2021/06/28 08:52:35;;;;;;;15.90;12.02;;;31.20;99.90;;;;;;5020477;28;20506;-79
2021/06/28 08:58:53;;;;;;;13.00;10.40;;;30.80;99.90;;;;;;4983816;28;20058;-80
2021/06/28 09:01:27;;;;;;;12.63;11.32;;;30.40;99.90;;;;;;5019989;28;20089;-80
2021/06/28 09:04:00;;;;;;;14.95;13.18;;;30.10;99.90;;;;;;5019916;28;20050;-80
2021/06/28 09:06:42;;;;;;;13.05;11.43;;;29.60;99.90;;;;;;5017418;28;20054;-80
2021/06/28 09:09:27;;;;;;;11.60;10.60;;;29.50;99.90;;;;;;5020498;28;20045;-80
2021/06/28 09:12:11;;;;;;;11.57;10.48;;;29.60;99.90;;;;;;5022118;28;20451;-82
2021/06/28 09:14:52;;;;;;;11.80;10.35;;;29.80;99.90;;;;;;5021181;28;20084;-81
2021/06/28 09:17:48;;;;;;;11.57;9.67;;;30.20;99.90;;;;;;5022222;28;20112;-81
2021/06/28 09:20:23;;;;;;;12.90;10.27;;;30.10;99.90;;;;;;5021973;28;20657;-81
2021/06/28 09:22:56;;;;;;;12.15;10.13;;;30.20;99.90;;;;;;5022462;28;20054;-80
2021/06/28 09:25:52;;;;;;;13.20;9.95;;;29.90;99.90;;;;;;5043786;28;20049;-82
2021/06/28 09:37:59;;;;;;;12.93;11.05;;;29.20;99.90;;;;;;4952282;28;20086;-83
2021/06/28 09:40:26;;;;;;;12.05;10.82;;;29.20;99.90;;;;;;4997796;28;20047;-80
2021/06/28 09:42:55;;;;;;;12.77;11.48;;;29.20;99.90;;;;;;5021957;28;20057;-79
2021/06/28 09:45:24;;;;;;;12.50;11.18;;;29.20;99.90;;;;;;5039601;28;20442;-79
2021/06/28 09:47:51;;;;;;;14.20;12.70;;;29.10;99.90;;;;;;5040418;28;20119;-80
2021/06/28 09:50:20;;;;;;;13.15;11.48;;;28.80;99.90;;;;;;5039911;28;20046;-80
2021/06/28 09:52:50;;;;;;;12.98;11.77;;;28.70;99.90;;;;;;5038601;28;20064;-80
2021/06/28 09:55:23;;;;;;;14.73;12.85;;;28.60;99.90;;;;;;5040481;28;20080;-80
2021/06/28 09:58:12;;;;;;;13.43;12.10;;;28.60;99.90;;;;;;5039899;28;20386;-79
2021/06/28 10:00:43;;;;;;;16.40;12.75;;;28.70;99.90;;;;;;5038543;28;20045;-79
2021/06/28 10:03:27;;;;;;;12.90;11.65;;;29.10;99.90;;;;;;5037246;28;20072;-79
2021/06/28 10:06:01;;;;;;;14.93;11.65;;;29.30;99.90;;;;;;5032239;28;20140;-79
2021/06/28 10:08:33;;;;;;;13.73;11.90;;;29.50;99.90;;;;;;5031928;28;20100;-79
2021/06/28 10:11:10;;;;;;;;;;;29.50;99.90;;;;;;5024869;28;20052;-80
2021/06/28 10:13:39;;;;;;;13.02;11.73;;;29.50;99.90;;;;;;5034847;28;19975;-80
2021/06/28 10:16:06;;;;;;;14.18;12.70;;;29.50;99.90;;;;;;5029040;28;20045;-80
2021/06/28 10:18:33;;;;;;;14.65;12.68;;;29.50;99.90;;;;;;5029483;28;20077;-80
2021/06/28 10:21:00;;;;;;;12.82;11.32;;;29.50;99.90;;;;;;5026751;28;20608;-78
2021/06/28 10:23:27;;;;;;;14.65;11.48;;;29.50;99.90;;;;;;5020218;28;20092;-81
2021/06/28 10:25:54;;;;;;;14.27;12.88;;;29.50;99.90;;;;;;5020989;28;20399;-81
2021/06/28 10:28:21;;;;;;;13.30;12.00;;;29.30;99.90;;;;;;5020110;28;20080;-81
2021/06/28 10:30:52;;;;;;;14.18;12.82;;;29.30;99.90;;;;;;5019347;28;20102;-80
2021/06/28 10:33:22;;;;;;;14.40;13.00;;;29.30;99.90;;;;;;5019577;28;20133;-81
2021/06/28 10:35:50;;;;;;;19.50;13.43;;;29.30;99.90;;;;;;5020197;28;20076;-83
2021/06/28 10:38:17;;;;;;;18.73;14.05;;;29.00;99.90;;;;;;5020746;28;20050;-80
2021/06/28 10:40:53;;;;;;;15.80;14.30;;;28.90;99.90;;;;;;5021195;28;20483;-80
2021/06/28 10:43:33;;;;;;;15.60;14.02;;;28.70;99.90;;;;;;5029645;28;20054;-78
2021/06/28 10:46:02;;;;;;;14.07;12.55;;;28.50;99.90;;;;;;5037903;28;20415;-83
2021/06/28 10:48:31;;;;;;;14.98;13.13;;;28.30;99.90;;;;;;5038015;28;20522;-78
2021/06/28 10:51:04;;;;;;;16.15;14.32;;;27.90;99.90;;;;;;5036789;28;20525;-78
2021/06/28 10:54:00;;;;;;;16.02;14.27;;;27.80;99.90;;;;;;5037472;28;20107;-80
2021/06/28 10:56:52;;;;;;;16.65;15.15;;;27.50;99.90;;;;;;5038339;28;20561;-80
2021/06/28 10:59:31;;;;;;;18.50;15.07;;;27.20;99.90;;;;;;5035236;28;20052;-79
2021/06/28 11:02:19;;;;;;;17.35;15.20;;;27.10;99.90;;;;;;5026283;28;20182;-78
2021/06/28 11:04:57;;;;;;;15.90;13.00;;;27.20;99.90;;;;;;5024383;28;20144;-78
2021/06/28 11:07:24;;;;;;;15.27;13.15;;;27.40;99.90;;;;;;5033957;28;20077;-78
2021/06/28 11:09:53;;;;;;;15.13;13.55;;;27.50;99.90;;;;;;5036217;28;20053;-81
2021/06/28 11:12:38;;;;;;;16.95;13.52;;;27.60;99.90;;;;;;5039963;28;20041;-80
2021/06/28 11:15:25;;;;;;;15.13;13.73;;;27.70;99.90;;;;;;5037788;28;20049;-81
2021/06/28 11:17:58;;;;;;;14.02;12.73;;;27.80;99.90;;;;;;5036104;28;20484;-79
2021/06/28 11:20:35;;;;;;;16.50;13.57;;;27.70;99.90;;;;;;5036247;28;20105;-80
2021/06/28 11:23:07;;;;;;;20.05;15.18;;;27.80;99.90;;;;;;5036659;28;20489;-83
2021/06/28 11:25:54;;;;;;;16.98;14.82;;;28.10;99.90;;;;;;5036601;28;20140;-80
2021/06/28 11:28:51;;;;;;;14.95;13.30;;;28.30;99.90;;;;;;5036905;28;20057;-78
2021/06/28 11:31:29;;;;;;;13.85;12.35;;;28.60;99.90;;;;;;5028709;28;20417;-78
2021/06/28 11:34:01;;;;;;;13.52;12.23;;;28.80;99.90;;;;;;5033052;28;20096;-80
2021/06/28 11:36:44;;;;;;;13.13;11.63;;;29.00;99.90;;;;;;5027919;28;20080;-79
2021/06/28 11:39:30;;;;;;;12.63;10.25;;;29.10;99.90;;;;;;5032963;28;20080;-81
2021/06/28 11:42:20;;;;;;;10.32;8.85;;;29.20;99.90;;;;;;5034162;28;20041;-81
2021/06/28 11:44:57;;;;;;;9.05;7.97;;;29.10;99.90;;;;;;5037311;28;20045;-81
2021/06/28 11:48:00;;;;;;;8.23;7.05;;;29.10;99.90;;;;;;5034124;28;20124;-80
2021/06/28 11:50:31;;;;;;;12.18;8.50;;;28.70;99.90;;;;;;5036317;28;20053;-80
2021/06/28 11:52:59;;;;;;;9.93;7.97;;;28.60;99.90;;;;;;5038177;28;20498;-80
2021/06/28 11:55:26;;;;;;;9.48;7.95;;;28.70;99.90;;;;;;5045891;28;20116;-82
2021/06/28 11:57:54;;;;;;;10.32;9.32;;;28.80;99.90;;;;;;5053478;28;20045;-80
2021/06/28 12:00:22;;;;;;;8.48;7.75;;;28.60;99.90;;;;;;5055305;28;20540;-80
2021/06/28 12:03:09;;;;;;;9.45;8.55;;;28.40;99.90;;;;;;5055367;28;20048;-80
2021/06/28 12:05:37;;;;;;;9.02;7.70;;;28.30;99.90;;;;;;5043600;28;20128;-81
2021/06/28 12:08:04;;;;;;;8.73;7.93;;;28.30;99.90;;;;;;5048201;28;20064;-80
2021/06/28 12:10:31;;;;;;;7.97;7.22;;;28.30;99.90;;;;;;5045404;28;20114;-81
2021/06/28 12:13:00;;;;;;;6.45;5.85;;;28.30;99.90;;;;;;5033831;28;20191;-81
2021/06/28 12:15:28;;;;;;;9.00;6.43;;;28.50;99.90;;;;;;5029046;28;20061;-80
2021/06/28 12:17:55;;;;;;;7.13;6.13;;;28.60;99.90;;;;;;5047367;28;20148;-80
2021/06/28 12:20:23;;;;;;;6.97;6.28;;;28.80;99.90;;;;;;5042356;28;20139;-80
2021/06/28 12:22:51;;;;;;;8.10;7.18;;;29.00;99.90;;;;;;5031260;28;20044;-80
2021/06/28 12:25:20;;;;;;;8.25;7.20;;;29.20;99.90;;;;;;5034390;28;20421;-82
2021/06/28 12:27:49;;;;;;;8.55;7.40;;;29.40;99.90;;;;;;5037934;28;20062;-80
2021/06/28 12:30:19;;;;;;;9.52;7.30;;;29.30;99.90;;;;;;5037309;28;20077;-81
2021/06/28 12:32:46;;;;;;;8.35;7.38;;;29.30;99.90;;;;;;5036116;28;20046;-80
2021/06/28 12:35:17;;;;;;;8.30;7.57;;;29.30;99.90;;;;;;5054290;28;20488;-81
2021/06/28 12:37:48;;;;;;;7.80;7.10;;;29.40;99.90;;;;;;5058935;28;20140;-81
2021/06/28 12:40:19;;;;;;;8.48;7.60;;;29.60;99.90;;;;;;5047046;28;20045;-80
2021/06/28 12:42:48;;;;;;;8.25;7.35;;;29.70;99.90;;;;;;5039838;28;20149;-83
2021/06/28 12:45:16;;;;;;;11.02;6.65;;;29.90;99.90;;;;;;5040197;28;20057;-82
2021/06/28 12:47:46;;;;;;;8.93;6.95;;;29.70;99.90;;;;;;5041554;28;20056;-81
2021/06/28 12:50:18;;;;;;;7.53;6.57;;;29.80;99.90;;;;;;5047929;28;20084;-81
2021/06/28 12:52:45;;;;;;;10.98;6.45;;;29.60;99.90;;;;;;5039150;28;20088;-80
2021/06/28 12:55:15;;;;;;;7.43;6.60;;;29.60;99.90;;;;;;5038065;28;20049;-81
2021/06/28 12:57:45;;;;;;;12.60;6.45;;;29.50;99.90;;;;;;5034842;28;20114;-79
2021/06/28 13:00:25;;;;;;;8.68;6.70;;;29.30;99.90;;;;;;5038905;28;20076;-80